Southern Ontario METAR Reports

CYSN - St.Catharines
Updated: 04/20/2019 8:00am
Light rain, Mist, Overcast
Light rain, Mist, Overcast
 Wind from NE
Wind: NE 28 km/h
Temperature: 4°C
Wind Chill: -1°C
Dew Point: 4°C
Humidity: 100%
Barometer: 1005.8 hPa
Summary: Light rain, Mist
Clouds: Overcast
Visibility: 5 km
Cloud details: Overcast 91 m
2019/04/20 12:00 CYSN 201200Z 05015KT 3SM -RA BR OVC003 04/04 A2970 RMK SF8 PRESRR SLP062
CYHM - Hamilton
Updated: 04/20/2019 8:00am
Light rain, Mist, Overcast
Light rain, Mist, Overcast
 Wind from NE
Wind: NE 35 km/h, Gust: 61 km/h
Temperature: 5°C
Wind Chill: -1°C
Dew Point: 4°C
Humidity: 93%
Barometer: 1004.1 hPa
Summary: Light rain, Mist
Clouds: Overcast
Visibility: 10 km
Cloud details: Overcast 183 m
2019/04/20 12:00 CYHM 201200Z 04019G33KT 6SM -RA BR OVC006 05/04 A2965 RMK SC8 PCPN VRY LGT SLP048
 
CYYZ - Toronto
Updated: 04/20/2019 8:18am
Light drizzle, Mist, Overcast
Light drizzle, Mist, Overcast
 Wind from NE
Wind: NE 20 km/h, Gust: 30 km/h
Temperature: 5°C
Wind Chill: 1°C
Dew Point: 4°C
Humidity: 93%
Barometer: 1006.8 hPa
Summary: Light drizzle, Mist
Clouds: Overcast
Visibility: 10 km
Cloud details: Overcast 274 m
2019/04/20 12:18 CYYZ 201218Z 05011G16KT 6SM -DZ BR OVC009 05/04 A2973 RMK ST8 SLP075
CYKF - Waterloo
Updated: 04/20/2019 8:00am
Overcast
Overcast
 Wind from ENE
Wind: ENE 22 km/h, Gust: 37 km/h
Temperature: 4°C
Wind Chill: -1°C
Dew Point: 3°C
Humidity: 93%
Barometer: 1005.1 hPa
Clouds: Overcast
Visibility: 14 km
Cloud details: Overcast 274 m
2019/04/20 12:00 CYKF 201200Z AUTO 06012G20KT 9SM OVC009 04/03 A2968 RMK SLP060
 
CYXU - London
Updated: 04/20/2019 8:00am
Light rain, Overcast
Light rain, Overcast
 Wind from ENE
Wind: ENE 33 km/h, Gust: 46 km/h
Temperature: 5°C
Wind Chill: 0°C
Dew Point: 3°C
Humidity: 87%
Barometer: 1003.4 hPa
Summary: Light rain
Clouds: Overcast
Visibility: 24 km
Cloud details: Few Clouds 274 m
Overcast 366 m
2019/04/20 12:00 CYXU 201200Z 06018G25KT 15SM -RA FEW009 OVC012 05/03 A2963 RMK CF1SC8 CF TR -RA INTMT SLP040
CYQG - Windsor
Updated: 04/20/2019 8:38am
Light rain, Overcast
Light rain, Overcast
 Wind from NNE
Wind: NNE 37 km/h, Gust: 59 km/h
Temperature: 5°C
Wind Chill: -1°C
Dew Point: 3°C
Humidity: 87%
Barometer: 1002.7 hPa
Summary: Light rain
Clouds: Overcast
Visibility: 14 km
Cloud details: Overcast 335 m
2019/04/20 12:38 CYQG 201238Z AUTO 02020G32KT 9SM -RA OVC011 05/03 A2961 RMK SLP033
 
CYZR - Sarnia
Updated: 04/20/2019 8:00am
Overcast
Overcast
 Wind from NNE
Wind: NNE 37 km/h, Gust: 48 km/h
Temperature: 4°C
Wind Chill: -2°C
Dew Point: 3°C
Humidity: 93%
Barometer: 1004.4 hPa
Clouds: Overcast
Visibility: 14 km
Cloud details: Mostly cloudy 457 m
Overcast 1524 m
2019/04/20 12:00 CYZR 201200Z AUTO 02020G26KT 9SM BKN015 OVC050 04/03 A2966 RMK SLP049
CYVV - Wiarton
Updated: 04/20/2019 8:00am
Partly cloudy
Partly cloudy
 Wind from NE
Wind: NE 28 km/h, Gust: 41 km/h
Temperature: 2°C
Wind Chill: -3°C
Dew Point: 1°C
Humidity: 93%
Barometer: 1008.5 hPa
Clouds: Partly cloudy
Visibility: 24 km
Cloud details: Few Clouds 1067 m
Few Clouds 2134 m
Partly cloudy 7620 m
2019/04/20 12:00 CYVV 201200Z 04015G22KT 15SM FEW035 FEW070 SCT250 02/01 A2978 RMK SC1AC1CC1 SLP093
 
CYPQ - Peterborough
Updated: 04/20/2019 8:00am
Overcast
Overcast
 Wind from NE
Wind: NE 19 km/h, Gust: 31 km/h
Temperature: 5°C
Wind Chill: 1°C
Dew Point: 4°C
Humidity: 93%
Barometer: 1007.1 hPa
Clouds: Overcast
Visibility: 14 km
Cloud details: Overcast 427 m
2019/04/20 12:00 CYPQ 201200Z AUTO 04010G17KT 9SM OVC014 05/04 A2974 RMK SLP079
CYTR - Trenton
Updated: 04/20/2019 8:25am
Overcast
Overcast
 Wind from NE
Wind: NE 33 km/h, Gust: 44 km/h
Temperature: 6°C
Wind Chill: 1°C
Dew Point: 5°C
Humidity: 93%
Barometer: 1007.1 hPa
Clouds: Overcast
Visibility: 19 km
Cloud details: Mostly cloudy 366 m
Overcast 732 m
2019/04/20 12:25 CYTR 201225Z 04018G24KT 12SM BKN012 OVC024 06/05 A2974 RMK SF6SC2 SLP075